• Join FlightAware (Why Join?)
  • Login
  • US Flag GB Flag 
11:32 EDT


 

Airport Tracker/Info


-or-


 

Live Flight TrackerFlight Track Log ✈ ASQ6151 ✈ 14-May-2013 ✈ KSAV - KORD

Flight Track Log - Related Links

Times and Time Zones

All times are in EDT time to prevent confusion due to time zone crossing. See the ASQ6151 flight status page for this flight to view local times or setup timezone preferences in your user account.

Time Position Orientation Groundspeed Altitude Reporting Facility
EDT Latitude Longitude Course Direction KTS MPH feet Rate Location/Type
18:04 32.1964 -81.1617 North 217 250 3,400  Level Jacksonville Center
18:05 32.2653 -81.1581 North 240 276 5,300 2,100 Climbing Jacksonville Center
18:06 32.3361 -81.1542 North 245 282 7,700 2,100 Climbing Jacksonville Center
18:07 32.3989 -81.1506 North 250 288 9,500 1,380 Climbing Jacksonville Center
18:08 32.4822 -81.1467 North 261 300 10,500 900 Climbing Jacksonville Center
18:09 32.6186 -81.1500 North  Level FlightAware Approximate
18:09 32.5614 -81.1400 North 298 343 11,400  Level Jacksonville Center
18:10 32.6617 -81.1356 North 310 357 12,800 1,200 Climbing Jacksonville Center
18:11 32.7450 -81.1267 North 320 368 13,900 1,020 Climbing Jacksonville Center
18:12 32.8367 -81.1200 North 325 374 14,900 900 Climbing Jacksonville Center
18:13 32.9306 -81.1156 North 330 380 15,800 900 Climbing Jacksonville Center
18:14 33.0286 -81.1086 North 335 386 16,800 900 Climbing Jacksonville Center
18:15 33.1225 -81.1042 North 335 386 17,700 840 Climbing Jacksonville Center
18:16 33.2183 -81.0975 North 340 391 18,500 900 Climbing Jacksonville Center
18:17 33.3186 -81.0931 North 350 403 19,500 960 Climbing Jacksonville Center
18:18 33.4167 -81.0858 North 350 403 20,500 900 Climbing Jacksonville Center
18:19 33.5250 -81.0789 North 350 403 21,400 900 Climbing Jacksonville Center
18:20 33.6269 -81.0692 North 350 403 22,400 960 Climbing Jacksonville Center
18:21 33.7231 -81.0647 North 345 397 23,400 900 Climbing Jacksonville Center
18:22 33.8125 -81.0578 North 345 397 24,300 900 Climbing Jacksonville Center
18:23 33.9089 -81.0733 352° North 351 404 25,200 1,020 Climbing Jacksonville Center
18:24 34.0139 -81.1164 341° North 344 396 26,400 1,020 Climbing Jacksonville Center
18:25 34.1083 -81.1569 340° North 349 402 27,300 900 Climbing Jacksonville Center
18:26 34.1983 -81.1928 342° North 349 402 28,300 900 Climbing Jacksonville Center
18:28 34.4208 -81.2914 340° North 337 388 30,600 900 Climbing Atlanta Center
18:29 34.5008 -81.3142 347° North 337 388 31,500 900 Climbing Atlanta Center
18:30 34.5956 -81.3564 340° North 342 394 32,400 960 Climbing Atlanta Center
18:31 34.6947 -81.3989 341° North 348 400 33,500 960 Climbing Atlanta Center
18:32 34.7831 -81.4364 341° North 348 400 34,400 900 Climbing Atlanta Center
18:33 34.8675 -81.4819 336° Northwest 336 387 35,400 780 Climbing Atlanta Center
18:34 34.9372 -81.5306 330° Northwest 331 381 36,000 300 Climbing Atlanta Center
18:35 35.0200 -81.5889 330° Northwest 331 381 36,000  Level Atlanta Center
18:36 35.1025 -81.6447 331° Northwest 341 392 36,000  Level Atlanta Center
18:37 35.1911 -81.7083 330° Northwest 353 406 36,000  Level Atlanta Center
18:38 35.2864 -81.7794 329° Northwest 366 421 36,000  Level Atlanta Center
18:39 35.3794 -81.8456 330° Northwest 373 429 36,000  Level Atlanta Center
18:40 35.4725 -81.9144 329° Northwest 383 441 36,000  Level Atlanta Center
18:41 35.5694 -81.9808 331° Northwest 394 453 36,000  Level Atlanta Center
18:42 35.6689 -82.0500 331° Northwest 399 459 36,000  Level Atlanta Center
18:43 35.7636 -82.1194 329° Northwest 399 459 36,000  Level Atlanta Center
18:44 35.8586 -82.1889 329° Northwest 399 459 36,000  Level Atlanta Center
18:45 35.9431 -82.2486 330° Northwest 393 452 36,000  Level Atlanta Center
18:46 36.0378 -82.3183 329° Northwest 393 452 36,000  Level Atlanta Center
18:47 36.1306 -82.3858 330° Northwest 393 452 36,000  Level Atlanta Center
18:48 36.2339 -82.4608 330° Northwest 393 452 36,000  Level Atlanta Center
18:49 36.3244 -82.5311 328° Northwest 393 452 36,000  Level Atlanta Center
18:50 36.4169 -82.5992 329° Northwest 393 452 36,000  Level Atlanta Center
18:53 36.6450 -82.7661 330° Northwest 389 448 36,000  Level Indianapolis Center
18:54 36.7378 -82.8358 329° Northwest 389 448 36,000  Level Indianapolis Center
18:55 36.8292 -82.9050 329° Northwest 389 448 36,000  Level Indianapolis Center
18:56 36.9319 -82.9822 329° Northwest 396 456 36,000  Level Indianapolis Center
18:57 37.0283 -83.0556 329° Northwest 401 461 36,000  Level Indianapolis Center
18:58 37.1214 -83.1250 329° Northwest 391 450 36,000  Level Indianapolis Center
18:59 37.2297 -83.2069 329° Northwest 389 448 36,000  Level Indianapolis Center
19:00 37.3225 -83.2772 329° Northwest 388 447 36,000  Level Indianapolis Center
19:01 37.4150 -83.3478 329° Northwest 387 445 36,000  Level Indianapolis Center
19:02 37.5078 -83.4181 329° Northwest 390 449 36,000  Level Indianapolis Center
19:03 37.6000 -83.4894 328° Northwest 388 447 36,000  Level Indianapolis Center
19:04 37.6928 -83.5611 329° Northwest 390 449 36,000  Level Indianapolis Center
19:05 37.8006 -83.6444 329° Northwest 388 447 36,000  Level Indianapolis Center
19:06 37.8942 -83.7144 329° Northwest 389 448 36,000  Level Indianapolis Center
19:07 37.9914 -83.7733 334° Northwest 388 447 36,000  Level Indianapolis Center
19:08 38.0928 -83.8186 341° North 387 445 36,000  Level Indianapolis Center
19:09 38.1944 -83.8661 340° North 388 447 36,000  Level Indianapolis Center
19:11 38.3131 -83.9200 340° North 388 447 36,000  Level Indianapolis Center
19:12 38.4150 -83.9667 340° North 389 448 36,000  Level Indianapolis Center
19:13 38.5153 -84.0131 340° North 385 443 36,000  Level Indianapolis Center
19:14 38.6172 -84.0597 340° North 386 444 36,000  Level Indianapolis Center
19:15 38.7297 -84.1119 340° North 386 444 36,000  Level Indianapolis Center
19:16 38.8325 -84.1597 340° North 389 448 36,000  Level Indianapolis Center
19:17 38.9356 -84.2069 340° North 389 448 36,000  Level Indianapolis Center
19:18 39.0392 -84.2569 339° North 391 450 36,000  Level Indianapolis Center
19:19 39.1431 -84.3044 340° North 392 451 36,000  Level Indianapolis Center
19:20 39.2461 -84.3539 340° North 392 451 36,000  Level Indianapolis Center
19:21 39.3508 -84.4022 340° North 393 452 36,000 -60 Level Indianapolis Center
19:22 39.4539 -84.4511 340° North 391 450 35,900  Descending Indianapolis Center
19:23 39.5742 -84.5075 340° North 388 447 36,000  Climbing Indianapolis Center
19:24 39.6772 -84.5567 340° North 390 449 36,000  Level Indianapolis Center
19:25 39.7792 -84.6056 340° North 387 445 36,000  Level Indianapolis Center
19:26 39.8803 -84.6531 340° North 383 441 36,000  Level Indianapolis Center
19:27 39.9814 -84.7019 340° North 383 441 36,000 -120 Level Indianapolis Center
19:28 40.0844 -84.7511 340° North 387 445 35,800 -660 Descending Indianapolis Center
19:29 40.1889 -84.8006 340° North 392 451 34,700 -900 Descending Indianapolis Center
19:30 40.2931 -84.8503 340° North 396 456 34,000 -360 Descending Indianapolis Center
19:31 40.3881 -84.8978 339° North 367 422 34,000  Level Indianapolis Center
19:32 40.4861 -84.9453 340° North 362 417 34,000  Level Indianapolis Center
19:33 40.5817 -84.9925 339° North 369 425 34,000  Level Indianapolis Center
19:34 40.6739 -85.0356 341° North 367 422 34,000 -660 Level Chicago Center
19:35 40.7711 -85.0844 339° North 371 427 32,800 -1,320 Descending Chicago Center
19:36 40.8700 -85.1392 337° Northwest 383 441 31,300 -900 Descending Chicago Center
19:37 40.9614 -85.2133 329° Northwest 386 444 31,000 -180 Descending Chicago Center
19:38 41.0242 -85.3222 307° West 389 448 31,000  Level Chicago Center
19:39 41.0797 -85.4775 295° West 389 448 31,000 -360 Level Chicago Center
19:40 41.1272 -85.6056 296° West 386 444 30,300 -1,500 Descending Chicago Center
19:41 41.1753 -85.7389 296° West 398 458 27,900 -2,280 Descending Chicago Center
19:42 41.2253 -85.8739 296° West 405 466 25,700 -1,440 Descending Chicago Center
19:43 41.2731 -86.0061 296° West 398 458 25,000 -360 Descending Chicago Center
19:44 41.3103 -86.1447 290° West 400 460 25,000 -180 Level Chicago Center
19:45 41.3461 -86.2867 289° West 403 464 24,700 -1,320 Descending Chicago Center
19:47 41.3886 -86.4558 289° West 403 464 22,300 -2,160 Descending Chicago Center
19:48 41.4228 -86.5950 288° West 400 460 20,300 -1,980 Descending Chicago Center
19:49 41.4558 -86.7228 289° West 379 436 18,300 -2,040 Descending Chicago Center
19:50 41.4853 -86.8472 288° West 357 411 16,200 -2,040 Descending Chicago Center
19:51 41.5164 -86.9731 288° West 351 404 14,100 -1,980 Descending Chicago Center
19:52 41.5511 -87.1119 289° West 343 395 12,200 -1,260 Descending Chicago Center
19:52 41.5667 -87.1833 286° West 325 374 12,000 -180 Descending Chicago TRACON
19:53 41.6167 -87.2833 304° West 331 381 12,000  Level Chicago TRACON
19:54 41.6308 -87.3250 294° West 331 381 12,000  Level Chicago Center
19:55 41.6894 -87.4208 309° West 336 387 12,000 -540 Level Chicago Center
19:56 41.7569 -87.5372 308° West 334 384 10,900 -960 Descending Chicago Center
19:57 41.7933 -87.6269 299° West 283 326 10,100 -1,140 Descending Chicago Center
19:57 41.8167 -87.6667 308° West 248 285 9,200 -1,740 Descending Chicago TRACON
19:58 41.8333 -87.7333 289° West 232 267 7,800 -1,200 Descending Chicago TRACON
19:59 41.8667 -87.8167 298° West 247 284 7,000 -420 Descending Chicago TRACON
20:00 41.8833 -87.9000 285° West 248 285 7,000 -60 Level Chicago TRACON
20:01 41.9000 -88.0000 283° West 209 241 6,900 -720 Descending Chicago TRACON
20:02 41.9000 -88.0667 270° West 210 242 5,500 -1,680 Descending Chicago TRACON
20:03 41.9500 -88.1167 323° Northwest 252 290 3,600 -1,560 Descending Chicago TRACON
20:04 41.9667 -88.0500 71° East 202 232 2,600 -1,020 Descending Chicago TRACON
20:05 41.9667 -87.9833 90° East 145 167 1,600 -840 Descending Chicago TRACON
20:06 41.9667 -87.9500 90° East 132 152 1,000 -720 Descending Chicago TRACON
20:08 41.9667 -87.9000 56° Northeast  Level FlightAware Approximate